sensor_id;sensor_type;location;lat;lon;timestamp;P1;durP1;ratioP1;P2;durP2;ratioP2
17614;SDS011;8926;49.720;6.576;2022-12-07T00:01:05;4.00;;;3.70;;
17614;SDS011;8926;49.720;6.576;2022-12-07T00:03:31;4.23;;;3.93;;
17614;SDS011;8926;49.720;6.576;2022-12-07T00:05:59;4.50;;;4.20;;
17614;SDS011;8926;49.720;6.576;2022-12-07T00:08:25;4.60;;;4.20;;
17614;SDS011;8926;49.720;6.576;2022-12-07T00:10:51;4.73;;;4.33;;
17614;SDS011;8926;49.720;6.576;2022-12-07T00:13:16;4.37;;;3.97;;
17614;SDS011;8926;49.720;6.576;2022-12-07T00:15:41;4.70;;;4.30;;
17614;SDS011;8926;49.720;6.576;2022-12-07T00:18:07;6.03;;;5.63;;
17614;SDS011;8926;49.720;6.576;2022-12-07T00:20:32;5.37;;;4.97;;
17614;SDS011;8926;49.720;6.576;2022-12-07T00:22:58;5.93;;;5.43;;
17614;SDS011;8926;49.720;6.576;2022-12-07T00:25:23;7.27;;;6.57;;
17614;SDS011;8926;49.720;6.576;2022-12-07T00:27:48;6.70;;;6.17;;
17614;SDS011;8926;49.720;6.576;2022-12-07T00:30:14;6.83;;;6.33;;
17614;SDS011;8926;49.720;6.576;2022-12-07T00:32:39;6.53;;;6.03;;
17614;SDS011;8926;49.720;6.576;2022-12-07T00:35:05;6.00;;;5.50;;
17614;SDS011;8926;49.720;6.576;2022-12-07T00:37:30;5.40;;;4.90;;
17614;SDS011;8926;49.720;6.576;2022-12-07T00:39:55;5.87;;;5.43;;
17614;SDS011;8926;49.720;6.576;2022-12-07T00:42:21;5.00;;;4.60;;
17614;SDS011;8926;49.720;6.576;2022-12-07T00:44:46;4.50;;;4.20;;
17614;SDS011;8926;49.720;6.576;2022-12-07T00:47:11;4.80;;;4.40;;
17614;SDS011;8926;49.720;6.576;2022-12-07T00:49:37;5.17;;;4.77;;
17614;SDS011;8926;49.720;6.576;2022-12-07T00:52:02;4.53;;;4.23;;
17614;SDS011;8926;49.720;6.576;2022-12-07T00:54:27;4.30;;;4.00;;
17614;SDS011;8926;49.720;6.576;2022-12-07T00:56:53;4.97;;;4.60;;
17614;SDS011;8926;49.720;6.576;2022-12-07T00:59:18;5.13;;;4.73;;
17614;SDS011;8926;49.720;6.576;2022-12-07T01:01:43;5.33;;;4.93;;
17614;SDS011;8926;49.720;6.576;2022-12-07T01:04:08;5.47;;;5.07;;
17614;SDS011;8926;49.720;6.576;2022-12-07T01:06:34;5.17;;;4.77;;
17614;SDS011;8926;49.720;6.576;2022-12-07T01:09:00;5.07;;;4.67;;
17614;SDS011;8926;49.720;6.576;2022-12-07T01:11:27;5.07;;;4.67;;
17614;SDS011;8926;49.720;6.576;2022-12-07T01:13:54;4.80;;;4.40;;
17614;SDS011;8926;49.720;6.576;2022-12-07T01:16:21;4.87;;;4.50;;
17614;SDS011;8926;49.720;6.576;2022-12-07T01:18:49;4.10;;;3.80;;
17614;SDS011;8926;49.720;6.576;2022-12-07T01:21:17;4.77;;;4.40;;
17614;SDS011;8926;49.720;6.576;2022-12-07T01:23:46;4.37;;;4.07;;
17614;SDS011;8926;49.720;6.576;2022-12-07T01:26:13;5.63;;;5.07;;
17614;SDS011;8926;49.720;6.576;2022-12-07T01:28:40;5.50;;;5.00;;
17614;SDS011;8926;49.720;6.576;2022-12-07T01:31:09;4.83;;;4.53;;
17614;SDS011;8926;49.720;6.576;2022-12-07T01:33:36;6.63;;;6.10;;
17614;SDS011;8926;49.720;6.576;2022-12-07T01:36:04;5.77;;;5.27;;
17614;SDS011;8926;49.720;6.576;2022-12-07T01:38:31;5.60;;;5.20;;
17614;SDS011;8926;49.720;6.576;2022-12-07T01:40:57;5.30;;;4.90;;
17614;SDS011;8926;49.720;6.576;2022-12-07T01:43:25;5.13;;;4.77;;
17614;SDS011;8926;49.720;6.576;2022-12-07T01:45:52;4.70;;;4.30;;
17614;SDS011;8926;49.720;6.576;2022-12-07T01:48:19;4.67;;;4.27;;
17614;SDS011;8926;49.720;6.576;2022-12-07T01:51:08;4.07;;;3.77;;
17614;SDS011;8926;49.720;6.576;2022-12-07T01:53:38;4.90;;;4.50;;
17614;SDS011;8926;49.720;6.576;2022-12-07T01:56:08;4.07;;;3.67;;
17614;SDS011;8926;49.720;6.576;2022-12-07T01:58:37;4.90;;;4.50;;
17614;SDS011;8926;49.720;6.576;2022-12-07T02:01:03;4.17;;;3.87;;
17614;SDS011;8926;49.720;6.576;2022-12-07T02:03:39;4.80;;;4.40;;
17614;SDS011;8926;49.720;6.576;2022-12-07T02:06:07;4.20;;;3.90;;
17614;SDS011;8926;49.720;6.576;2022-12-07T02:08:33;4.43;;;4.13;;
17614;SDS011;8926;49.720;6.576;2022-12-07T02:11:00;4.67;;;4.37;;
17614;SDS011;8926;49.720;6.576;2022-12-07T02:13:28;5.07;;;4.67;;
17614;SDS011;8926;49.720;6.576;2022-12-07T02:18:55;5.00;;;4.60;;
17614;SDS011;8926;49.720;6.576;2022-12-07T02:21:45;4.57;;;4.23;;
17614;SDS011;8926;49.720;6.576;2022-12-07T02:24:19;4.90;;;4.53;;
17614;SDS011;8926;49.720;6.576;2022-12-07T02:29:44;5.07;;;4.67;;
17614;SDS011;8926;49.720;6.576;2022-12-07T02:32:19;4.97;;;4.57;;
17614;SDS011;8926;49.720;6.576;2022-12-07T02:35:04;5.47;;;4.97;;
17614;SDS011;8926;49.720;6.576;2022-12-07T02:37:47;6.00;;;5.50;;
17614;SDS011;8926;49.720;6.576;2022-12-07T02:40:34;5.07;;;4.70;;
17614;SDS011;8926;49.720;6.576;2022-12-07T02:43:16;5.40;;;4.90;;
17614;SDS011;8926;49.720;6.576;2022-12-07T02:45:47;4.97;;;4.60;;
17614;SDS011;8926;49.720;6.576;2022-12-07T02:48:15;4.73;;;4.33;;
17614;SDS011;8926;49.720;6.576;2022-12-07T02:50:48;4.57;;;4.17;;
17614;SDS011;8926;49.720;6.576;2022-12-07T02:56:05;4.00;;;3.70;;
17614;SDS011;8926;49.720;6.576;2022-12-07T02:58:37;4.03;;;3.73;;
17614;SDS011;8926;49.720;6.576;2022-12-07T03:04:06;4.60;;;4.30;;
17614;SDS011;8926;49.720;6.576;2022-12-07T03:07:00;5.97;;;5.47;;
17614;SDS011;8926;49.720;6.576;2022-12-07T03:09:35;6.07;;;5.60;;
17614;SDS011;8926;49.720;6.576;2022-12-07T03:12:16;7.27;;;6.67;;
17614;SDS011;8926;49.720;6.576;2022-12-07T03:14:50;8.03;;;7.30;;
17614;SDS011;8926;49.720;6.576;2022-12-07T03:17:38;7.70;;;6.93;;
17614;SDS011;8926;49.720;6.576;2022-12-07T03:20:06;7.73;;;7.03;;
17614;SDS011;8926;49.720;6.576;2022-12-07T03:22:34;7.60;;;7.00;;
17614;SDS011;8926;49.720;6.576;2022-12-07T03:25:06;8.00;;;7.30;;
17614;SDS011;8926;49.720;6.576;2022-12-07T03:27:40;7.03;;;6.43;;
17614;SDS011;8926;49.720;6.576;2022-12-07T03:30:15;8.73;;;8.03;;
17614;SDS011;8926;49.720;6.576;2022-12-07T03:32:44;8.73;;;8.03;;
17614;SDS011;8926;49.720;6.576;2022-12-07T03:35:35;7.47;;;6.87;;
17614;SDS011;8926;49.720;6.576;2022-12-07T03:38:20;7.10;;;6.50;;
17614;SDS011;8926;49.720;6.576;2022-12-07T03:40:56;7.03;;;6.53;;
17614;SDS011;8926;49.720;6.576;2022-12-07T03:43:32;6.27;;;5.77;;
17614;SDS011;8926;49.720;6.576;2022-12-07T03:49:40;7.40;;;6.70;;
17614;SDS011;8926;49.720;6.576;2022-12-07T03:54:54;6.80;;;6.30;;
17614;SDS011;8926;49.720;6.576;2022-12-07T03:57:31;5.70;;;5.23;;
17614;SDS011;8926;49.720;6.576;2022-12-07T03:59:59;6.50;;;6.00;;
17614;SDS011;8926;49.720;6.576;2022-12-07T04:02:26;7.23;;;6.57;;
17614;SDS011;8926;49.720;6.576;2022-12-07T04:04:53;5.63;;;5.17;;
17614;SDS011;8926;49.720;6.576;2022-12-07T04:07:19;6.93;;;6.33;;
17614;SDS011;8926;49.720;6.576;2022-12-07T04:09:44;6.73;;;6.13;;
17614;SDS011;8926;49.720;6.576;2022-12-07T04:12:10;6.70;;;6.10;;
17614;SDS011;8926;49.720;6.576;2022-12-07T04:14:35;5.57;;;5.17;;
17614;SDS011;8926;49.720;6.576;2022-12-07T04:17:00;6.23;;;5.70;;
17614;SDS011;8926;49.720;6.576;2022-12-07T04:19:26;6.20;;;5.70;;
17614;SDS011;8926;49.720;6.576;2022-12-07T04:21:54;7.93;;;7.23;;
17614;SDS011;8926;49.720;6.576;2022-12-07T04:24:20;7.27;;;6.67;;
17614;SDS011;8926;49.720;6.576;2022-12-07T04:26:46;7.23;;;6.63;;
17614;SDS011;8926;49.720;6.576;2022-12-07T04:29:12;7.17;;;6.47;;
17614;SDS011;8926;49.720;6.576;2022-12-07T04:31:38;7.03;;;6.43;;
17614;SDS011;8926;49.720;6.576;2022-12-07T04:34:04;7.37;;;6.73;;
17614;SDS011;8926;49.720;6.576;2022-12-07T04:36:31;6.90;;;6.30;;
17614;SDS011;8926;49.720;6.576;2022-12-07T04:38:56;6.60;;;6.10;;
17614;SDS011;8926;49.720;6.576;2022-12-07T04:41:23;7.33;;;6.73;;
17614;SDS011;8926;49.720;6.576;2022-12-07T04:44:00;6.93;;;6.33;;
17614;SDS011;8926;49.720;6.576;2022-12-07T04:46:27;8.80;;;8.00;;
17614;SDS011;8926;49.720;6.576;2022-12-07T04:48:54;8.43;;;7.73;;
17614;SDS011;8926;49.720;6.576;2022-12-07T04:51:22;9.13;;;8.23;;
17614;SDS011;8926;49.720;6.576;2022-12-07T04:53:49;8.13;;;7.43;;
17614;SDS011;8926;49.720;6.576;2022-12-07T04:56:14;7.20;;;6.60;;
17614;SDS011;8926;49.720;6.576;2022-12-07T04:58:41;6.97;;;6.37;;
17614;SDS011;8926;49.720;6.576;2022-12-07T05:01:07;7.97;;;7.27;;
17614;SDS011;8926;49.720;6.576;2022-12-07T05:03:32;8.33;;;7.60;;
17614;SDS011;8926;49.720;6.576;2022-12-07T05:05:58;9.10;;;8.30;;
17614;SDS011;8926;49.720;6.576;2022-12-07T05:08:23;8.37;;;7.67;;
17614;SDS011;8926;49.720;6.576;2022-12-07T05:10:49;7.90;;;7.20;;
17614;SDS011;8926;49.720;6.576;2022-12-07T05:13:14;6.63;;;6.13;;
17614;SDS011;8926;49.720;6.576;2022-12-07T05:15:40;6.03;;;5.53;;
17614;SDS011;8926;49.720;6.576;2022-12-07T05:18:07;6.13;;;5.63;;
17614;SDS011;8926;49.720;6.576;2022-12-07T05:20:33;6.80;;;6.20;;
17614;SDS011;8926;49.720;6.576;2022-12-07T05:22:59;6.70;;;6.20;;
17614;SDS011;8926;49.720;6.576;2022-12-07T05:25:24;7.07;;;6.47;;
17614;SDS011;8926;49.720;6.576;2022-12-07T05:27:50;6.57;;;6.07;;
17614;SDS011;8926;49.720;6.576;2022-12-07T05:30:15;6.80;;;6.30;;
17614;SDS011;8926;49.720;6.576;2022-12-07T05:32:41;6.27;;;5.67;;
17614;SDS011;8926;49.720;6.576;2022-12-07T05:35:06;8.80;;;8.00;;
17614;SDS011;8926;49.720;6.576;2022-12-07T05:37:32;7.10;;;6.50;;
17614;SDS011;8926;49.720;6.576;2022-12-07T05:39:57;6.60;;;6.10;;
17614;SDS011;8926;49.720;6.576;2022-12-07T05:42:22;6.43;;;5.83;;
17614;SDS011;8926;49.720;6.576;2022-12-07T05:44:48;6.60;;;6.00;;
17614;SDS011;8926;49.720;6.576;2022-12-07T05:47:14;6.90;;;6.30;;
17614;SDS011;8926;49.720;6.576;2022-12-07T05:49:39;7.47;;;6.87;;
17614;SDS011;8926;49.720;6.576;2022-12-07T05:52:05;7.00;;;6.40;;
17614;SDS011;8926;49.720;6.576;2022-12-07T05:54:30;7.10;;;6.50;;
17614;SDS011;8926;49.720;6.576;2022-12-07T05:56:55;7.00;;;5.73;;
17614;SDS011;8926;49.720;6.576;2022-12-07T05:59:21;7.03;;;6.43;;
17614;SDS011;8926;49.720;6.576;2022-12-07T06:04:15;7.10;;;6.50;;
17614;SDS011;8926;49.720;6.576;2022-12-07T06:06:40;6.57;;;6.07;;
17614;SDS011;8926;49.720;6.576;2022-12-07T06:09:06;6.83;;;6.33;;
17614;SDS011;8926;49.720;6.576;2022-12-07T06:11:31;8.57;;;7.87;;
17614;SDS011;8926;49.720;6.576;2022-12-07T06:14:15;6.73;;;6.23;;
17614;SDS011;8926;49.720;6.576;2022-12-07T06:16:41;6.27;;;5.77;;
17614;SDS011;8926;49.720;6.576;2022-12-07T06:19:06;7.20;;;6.60;;
17614;SDS011;8926;49.720;6.576;2022-12-07T06:21:31;6.83;;;6.23;;
17614;SDS011;8926;49.720;6.576;2022-12-07T06:23:57;6.37;;;5.80;;
17614;SDS011;8926;49.720;6.576;2022-12-07T06:26:22;7.10;;;6.50;;
17614;SDS011;8926;49.720;6.576;2022-12-07T06:28:47;6.53;;;6.03;;
17614;SDS011;8926;49.720;6.576;2022-12-07T06:31:12;9.40;;;8.53;;
17614;SDS011;8926;49.720;6.576;2022-12-07T06:33:38;7.30;;;6.60;;
17614;SDS011;8926;49.720;6.576;2022-12-07T06:36:03;7.63;;;6.93;;
17614;SDS011;8926;49.720;6.576;2022-12-07T06:38:29;6.73;;;6.13;;
17614;SDS011;8926;49.720;6.576;2022-12-07T06:40:54;7.80;;;7.00;;
17614;SDS011;8926;49.720;6.576;2022-12-07T06:43:19;7.40;;;6.70;;
17614;SDS011;8926;49.720;6.576;2022-12-07T06:45:45;6.40;;;5.90;;
17614;SDS011;8926;49.720;6.576;2022-12-07T06:48:10;6.73;;;6.23;;
17614;SDS011;8926;49.720;6.576;2022-12-07T06:50:35;6.60;;;6.07;;
17614;SDS011;8926;49.720;6.576;2022-12-07T06:53:00;6.57;;;6.03;;
17614;SDS011;8926;49.720;6.576;2022-12-07T06:55:26;6.50;;;6.00;;
17614;SDS011;8926;49.720;6.576;2022-12-07T06:57:51;8.00;;;7.30;;
17614;SDS011;8926;49.720;6.576;2022-12-07T07:00:16;6.90;;;6.40;;
17614;SDS011;8926;49.720;6.576;2022-12-07T07:02:42;7.43;;;6.73;;
17614;SDS011;8926;49.720;6.576;2022-12-07T07:05:07;7.40;;;6.73;;
17614;SDS011;8926;49.720;6.576;2022-12-07T07:07:33;8.10;;;7.40;;
17614;SDS011;8926;49.720;6.576;2022-12-07T07:09:58;7.93;;;7.23;;
17614;SDS011;8926;49.720;6.576;2022-12-07T07:12:23;7.47;;;6.87;;
17614;SDS011;8926;49.720;6.576;2022-12-07T07:14:49;7.43;;;6.77;;
17614;SDS011;8926;49.720;6.576;2022-12-07T07:17:14;6.67;;;6.13;;
17614;SDS011;8926;49.720;6.576;2022-12-07T07:19:39;6.90;;;6.30;;
17614;SDS011;8926;49.720;6.576;2022-12-07T07:22:05;6.70;;;6.20;;
17614;SDS011;8926;49.720;6.576;2022-12-07T07:24:30;6.63;;;6.03;;
17614;SDS011;8926;49.720;6.576;2022-12-07T07:26:55;7.50;;;6.90;;
17614;SDS011;8926;49.720;6.576;2022-12-07T07:29:21;6.53;;;6.00;;
17614;SDS011;8926;49.720;6.576;2022-12-07T07:31:46;7.03;;;6.43;;
17614;SDS011;8926;49.720;6.576;2022-12-07T07:34:11;6.10;;;5.60;;
17614;SDS011;8926;49.720;6.576;2022-12-07T07:36:37;6.97;;;6.40;;
17614;SDS011;8926;49.720;6.576;2022-12-07T07:39:02;7.30;;;6.70;;
17614;SDS011;8926;49.720;6.576;2022-12-07T07:41:28;7.63;;;7.03;;
17614;SDS011;8926;49.720;6.576;2022-12-07T07:43:53;7.30;;;6.60;;
17614;SDS011;8926;49.720;6.576;2022-12-07T07:46:18;7.77;;;7.07;;
17614;SDS011;8926;49.720;6.576;2022-12-07T07:48:43;7.40;;;6.80;;
17614;SDS011;8926;49.720;6.576;2022-12-07T07:51:09;8.10;;;7.40;;
17614;SDS011;8926;49.720;6.576;2022-12-07T07:53:34;6.87;;;6.37;;
17614;SDS011;8926;49.720;6.576;2022-12-07T07:55:59;6.83;;;6.23;;
17614;SDS011;8926;49.720;6.576;2022-12-07T07:58:25;8.27;;;7.50;;
17614;SDS011;8926;49.720;6.576;2022-12-07T08:00:50;8.60;;;7.80;;
17614;SDS011;8926;49.720;6.576;2022-12-07T08:03:16;8.20;;;7.50;;
17614;SDS011;8926;49.720;6.576;2022-12-07T08:05:41;7.63;;;6.93;;
17614;SDS011;8926;49.720;6.576;2022-12-07T08:08:06;8.67;;;7.80;;
17614;SDS011;8926;49.720;6.576;2022-12-07T08:10:32;8.60;;;7.80;;
17614;SDS011;8926;49.720;6.576;2022-12-07T08:12:58;6.77;;;6.17;;
17614;SDS011;8926;49.720;6.576;2022-12-07T08:15:36;7.17;;;6.47;;
17614;SDS011;8926;49.720;6.576;2022-12-07T08:18:03;7.60;;;6.90;;
17614;SDS011;8926;49.720;6.576;2022-12-07T08:20:31;7.67;;;7.00;;
17614;SDS011;8926;49.720;6.576;2022-12-07T08:22:58;8.93;;;8.13;;
17614;SDS011;8926;49.720;6.576;2022-12-07T08:25:24;8.70;;;7.90;;
17614;SDS011;8926;49.720;6.576;2022-12-07T08:27:50;8.53;;;7.73;;
17614;SDS011;8926;49.720;6.576;2022-12-07T08:30:16;9.97;;;9.07;;
17614;SDS011;8926;49.720;6.576;2022-12-07T08:32:44;9.57;;;8.67;;
17614;SDS011;8926;49.720;6.576;2022-12-07T08:35:10;11.87;;;10.67;;
17614;SDS011;8926;49.720;6.576;2022-12-07T08:37:35;10.93;;;9.87;;
17614;SDS011;8926;49.720;6.576;2022-12-07T08:40:01;12.00;;;10.80;;
17614;SDS011;8926;49.720;6.576;2022-12-07T08:42:28;11.20;;;10.10;;
17614;SDS011;8926;49.720;6.576;2022-12-07T08:45:02;11.20;;;10.20;;
17614;SDS011;8926;49.720;6.576;2022-12-07T08:47:28;9.20;;;8.40;;
17614;SDS011;8926;49.720;6.576;2022-12-07T08:49:54;9.00;;;8.20;;
17614;SDS011;8926;49.720;6.576;2022-12-07T08:52:19;9.23;;;8.33;;
17614;SDS011;8926;49.720;6.576;2022-12-07T08:54:45;9.07;;;8.27;;
17614;SDS011;8926;49.720;6.576;2022-12-07T08:57:11;7.33;;;6.73;;
17614;SDS011;8926;49.720;6.576;2022-12-07T08:59:37;7.10;;;6.50;;
17614;SDS011;8926;49.720;6.576;2022-12-07T09:02:03;8.53;;;7.73;;
17614;SDS011;8926;49.720;6.576;2022-12-07T09:04:29;6.53;;;5.93;;
17614;SDS011;8926;49.720;6.576;2022-12-07T09:06:55;8.83;;;8.03;;
17614;SDS011;8926;49.720;6.576;2022-12-07T09:09:21;9.97;;;9.07;;
17614;SDS011;8926;49.720;6.576;2022-12-07T09:11:46;9.97;;;9.00;;
17614;SDS011;8926;49.720;6.576;2022-12-07T09:14:11;8.27;;;7.47;;
17614;SDS011;8926;49.720;6.576;2022-12-07T09:16:37;10.47;;;9.47;;
17614;SDS011;8926;49.720;6.576;2022-12-07T09:19:03;9.90;;;9.00;;
17614;SDS011;8926;49.720;6.576;2022-12-07T09:21:28;11.30;;;10.20;;
17614;SDS011;8926;49.720;6.576;2022-12-07T09:23:54;10.63;;;9.63;;
17614;SDS011;8926;49.720;6.576;2022-12-07T09:26:19;9.10;;;8.23;;
17614;SDS011;8926;49.720;6.576;2022-12-07T09:28:44;8.60;;;7.90;;
17614;SDS011;8926;49.720;6.576;2022-12-07T09:31:10;10.20;;;9.30;;
17614;SDS011;8926;49.720;6.576;2022-12-07T09:33:35;8.33;;;7.60;;
17614;SDS011;8926;49.720;6.576;2022-12-07T09:36:00;9.67;;;8.67;;
17614;SDS011;8926;49.720;6.576;2022-12-07T09:38:27;10.53;;;9.53;;
17614;SDS011;8926;49.720;6.576;2022-12-07T09:40:54;8.60;;;7.90;;
17614;SDS011;8926;49.720;6.576;2022-12-07T09:43:21;9.20;;;8.40;;
17614;SDS011;8926;49.720;6.576;2022-12-07T09:45:51;9.53;;;8.63;;
17614;SDS011;8926;49.720;6.576;2022-12-07T09:48:22;10.20;;;9.17;;
17614;SDS011;8926;49.720;6.576;2022-12-07T09:50:54;9.67;;;8.73;;
17614;SDS011;8926;49.720;6.576;2022-12-07T09:53:33;10.07;;;9.17;;
17614;SDS011;8926;49.720;6.576;2022-12-07T09:56:00;12.83;;;10.33;;
17614;SDS011;8926;49.720;6.576;2022-12-07T09:58:27;11.20;;;9.87;;
17614;SDS011;8926;49.720;6.576;2022-12-07T10:01:05;9.70;;;8.80;;
17614;SDS011;8926;49.720;6.576;2022-12-07T10:03:37;10.90;;;10.00;;
17614;SDS011;8926;49.720;6.576;2022-12-07T10:06:05;8.50;;;7.80;;
17614;SDS011;8926;49.720;6.576;2022-12-07T10:08:32;7.70;;;7.10;;
17614;SDS011;8926;49.720;6.576;2022-12-07T10:10:58;7.73;;;7.13;;
17614;SDS011;8926;49.720;6.576;2022-12-07T10:13:35;6.83;;;6.23;;
17614;SDS011;8926;49.720;6.576;2022-12-07T10:16:02;7.67;;;7.07;;
17614;SDS011;8926;49.720;6.576;2022-12-07T10:18:38;7.37;;;6.77;;
17614;SDS011;8926;49.720;6.576;2022-12-07T10:21:13;7.33;;;6.73;;
17614;SDS011;8926;49.720;6.576;2022-12-07T10:24:01;6.93;;;6.33;;
17614;SDS011;8926;49.720;6.576;2022-12-07T10:26:35;7.07;;;6.47;;
17614;SDS011;8926;49.720;6.576;2022-12-07T10:29:49;7.97;;;7.20;;
17614;SDS011;8926;49.720;6.576;2022-12-07T10:32:01;7.20;;;6.67;;
17614;SDS011;8926;49.720;6.576;2022-12-07T10:34:33;7.53;;;6.93;;
17614;SDS011;8926;49.720;6.576;2022-12-07T10:37:11;7.30;;;6.70;;
17614;SDS011;8926;49.720;6.576;2022-12-07T10:42:08;7.37;;;6.67;;
17614;SDS011;8926;49.720;6.576;2022-12-07T10:44:41;5.43;;;4.93;;
17614;SDS011;8926;49.720;6.576;2022-12-07T10:52:32;7.37;;;6.67;;
17614;SDS011;8926;49.720;6.576;2022-12-07T10:55:19;7.17;;;6.40;;
17614;SDS011;8926;49.720;6.576;2022-12-07T10:58:14;5.27;;;4.77;;
17614;SDS011;8926;49.720;6.576;2022-12-07T11:04:03;5.87;;;5.33;;
17614;SDS011;8926;49.720;6.576;2022-12-07T11:06:37;5.30;;;4.90;;
17614;SDS011;8926;49.720;6.576;2022-12-07T11:11:49;4.90;;;4.50;;
17614;SDS011;8926;49.720;6.576;2022-12-07T11:14:26;5.97;;;5.47;;
17614;SDS011;8926;49.720;6.576;2022-12-07T11:16:57;5.23;;;4.83;;
17614;SDS011;8926;49.720;6.576;2022-12-07T11:20:12;5.03;;;4.63;;
17614;SDS011;8926;49.720;6.576;2022-12-07T11:30:54;5.80;;;5.30;;
17614;SDS011;8926;49.720;6.576;2022-12-07T11:33:27;5.07;;;4.67;;
17614;SDS011;8926;49.720;6.576;2022-12-07T11:36:21;5.60;;;5.10;;
17614;SDS011;8926;49.720;6.576;2022-12-07T11:39:16;5.23;;;4.73;;
17614;SDS011;8926;49.720;6.576;2022-12-07T11:41:57;5.60;;;5.10;;
17614;SDS011;8926;49.720;6.576;2022-12-07T11:44:34;4.63;;;4.23;;
17614;SDS011;8926;49.720;6.576;2022-12-07T11:47:20;5.10;;;4.60;;
17614;SDS011;8926;49.720;6.576;2022-12-07T11:52:48;5.07;;;4.67;;
17614;SDS011;8926;49.720;6.576;2022-12-07T11:55:21;4.90;;;4.50;;
17614;SDS011;8926;49.720;6.576;2022-12-07T11:57:54;4.90;;;4.50;;
17614;SDS011;8926;49.720;6.576;2022-12-07T12:00:28;5.10;;;4.60;;
17614;SDS011;8926;49.720;6.576;2022-12-07T12:02:57;4.60;;;4.20;;
17614;SDS011;8926;49.720;6.576;2022-12-07T12:05:30;4.30;;;4.00;;
17614;SDS011;8926;49.720;6.576;2022-12-07T12:08:16;5.53;;;4.67;;
17614;SDS011;8926;49.720;6.576;2022-12-07T12:10:52;4.37;;;3.97;;
17614;SDS011;8926;49.720;6.576;2022-12-07T12:21:56;4.20;;;3.80;;
17614;SDS011;8926;49.720;6.576;2022-12-07T12:24:30;3.87;;;3.57;;
17614;SDS011;8926;49.720;6.576;2022-12-07T12:27:05;3.50;;;3.30;;
17614;SDS011;8926;49.720;6.576;2022-12-07T12:29:35;3.90;;;3.60;;
17614;SDS011;8926;49.720;6.576;2022-12-07T12:32:04;3.60;;;3.30;;
17614;SDS011;8926;49.720;6.576;2022-12-07T12:42:45;3.83;;;3.47;;
17614;SDS011;8926;49.720;6.576;2022-12-07T12:45:33;3.77;;;3.47;;
17614;SDS011;8926;49.720;6.576;2022-12-07T12:48:03;3.87;;;3.57;;
17614;SDS011;8926;49.720;6.576;2022-12-07T12:50:50;3.83;;;3.43;;
17614;SDS011;8926;49.720;6.576;2022-12-07T12:54:02;3.80;;;3.50;;
17614;SDS011;8926;49.720;6.576;2022-12-07T12:56:40;3.20;;;3.00;;
17614;SDS011;8926;49.720;6.576;2022-12-07T12:59:59;3.03;;;2.77;;
17614;SDS011;8926;49.720;6.576;2022-12-07T13:10:28;4.27;;;3.87;;
17614;SDS011;8926;49.720;6.576;2022-12-07T13:15:39;4.80;;;4.27;;
17614;SDS011;8926;49.720;6.576;2022-12-07T13:20:52;3.63;;;3.20;;
17614;SDS011;8926;49.720;6.576;2022-12-07T13:23:21;3.50;;;3.20;;
17614;SDS011;8926;49.720;6.576;2022-12-07T13:28:37;3.63;;;3.20;;
17614;SDS011;8926;49.720;6.576;2022-12-07T13:33:52;3.30;;;3.00;;
17614;SDS011;8926;49.720;6.576;2022-12-07T13:36:24;3.33;;;3.07;;
17614;SDS011;8926;49.720;6.576;2022-12-07T13:38:52;3.83;;;3.30;;
17614;SDS011;8926;49.720;6.576;2022-12-07T13:41:22;4.17;;;3.87;;
17614;SDS011;8926;49.720;6.576;2022-12-07T13:44:03;3.97;;;3.67;;
17614;SDS011;8926;49.720;6.576;2022-12-07T13:49:19;3.50;;;3.20;;
17614;SDS011;8926;49.720;6.576;2022-12-07T13:51:47;3.20;;;2.93;;
17614;SDS011;8926;49.720;6.576;2022-12-07T13:54:13;3.03;;;2.83;;
17614;SDS011;8926;49.720;6.576;2022-12-07T13:56:39;3.57;;;3.27;;
17614;SDS011;8926;49.720;6.576;2022-12-07T13:59:10;3.93;;;3.53;;
17614;SDS011;8926;49.720;6.576;2022-12-07T14:01:39;3.73;;;3.40;;
17614;SDS011;8926;49.720;6.576;2022-12-07T14:06:59;6.57;;;5.97;;
17614;SDS011;8926;49.720;6.576;2022-12-07T14:09:26;6.77;;;6.07;;
17614;SDS011;8926;49.720;6.576;2022-12-07T14:11:54;5.43;;;4.93;;
17614;SDS011;8926;49.720;6.576;2022-12-07T14:14:22;4.40;;;4.07;;
17614;SDS011;8926;49.720;6.576;2022-12-07T14:22:19;2.83;;;2.63;;
17614;SDS011;8926;49.720;6.576;2022-12-07T14:24:48;2.23;;;2.10;;
17614;SDS011;8926;49.720;6.576;2022-12-07T14:27:16;2.03;;;1.90;;
17614;SDS011;8926;49.720;6.576;2022-12-07T14:29:43;2.00;;;1.90;;
17614;SDS011;8926;49.720;6.576;2022-12-07T14:32:15;1.70;;;1.60;;
17614;SDS011;8926;49.720;6.576;2022-12-07T14:37:24;2.03;;;1.57;;
17614;SDS011;8926;49.720;6.576;2022-12-07T14:39:50;1.90;;;1.80;;
17614;SDS011;8926;49.720;6.576;2022-12-07T14:42:15;1.77;;;1.67;;
17614;SDS011;8926;49.720;6.576;2022-12-07T14:44:41;1.73;;;1.63;;
17614;SDS011;8926;49.720;6.576;2022-12-07T14:47:08;1.50;;;1.40;;
17614;SDS011;8926;49.720;6.576;2022-12-07T14:49:37;1.30;;;1.20;;
17614;SDS011;8926;49.720;6.576;2022-12-07T14:52:03;1.30;;;1.30;;
17614;SDS011;8926;49.720;6.576;2022-12-07T14:54:30;1.53;;;1.43;;
17614;SDS011;8926;49.720;6.576;2022-12-07T14:56:57;1.40;;;1.30;;
17614;SDS011;8926;49.720;6.576;2022-12-07T14:59:22;1.57;;;1.47;;
17614;SDS011;8926;49.720;6.576;2022-12-07T15:01:48;1.73;;;1.60;;
17614;SDS011;8926;49.720;6.576;2022-12-07T15:04:14;1.70;;;1.60;;
17614;SDS011;8926;49.720;6.576;2022-12-07T15:06:39;1.60;;;1.40;;
17614;SDS011;8926;49.720;6.576;2022-12-07T15:09:05;2.60;;;1.80;;
17614;SDS011;8926;49.720;6.576;2022-12-07T15:11:30;1.70;;;1.53;;
17614;SDS011;8926;49.720;6.576;2022-12-07T15:13:56;1.70;;;1.60;;
17614;SDS011;8926;49.720;6.576;2022-12-07T15:16:33;1.47;;;1.37;;
17614;SDS011;8926;49.720;6.576;2022-12-07T15:18:59;2.07;;;1.93;;
17614;SDS011;8926;49.720;6.576;2022-12-07T15:21:24;2.60;;;2.40;;
17614;SDS011;8926;49.720;6.576;2022-12-07T15:23:50;2.37;;;2.17;;
17614;SDS011;8926;49.720;6.576;2022-12-07T15:26:15;2.30;;;2.10;;
17614;SDS011;8926;49.720;6.576;2022-12-07T15:28:41;1.93;;;1.83;;
17614;SDS011;8926;49.720;6.576;2022-12-07T15:31:13;1.80;;;1.70;;
17614;SDS011;8926;49.720;6.576;2022-12-07T15:33:39;2.17;;;1.50;;
17614;SDS011;8926;49.720;6.576;2022-12-07T15:36:04;1.50;;;1.40;;
17614;SDS011;8926;49.720;6.576;2022-12-07T15:38:30;1.77;;;1.67;;
17614;SDS011;8926;49.720;6.576;2022-12-07T15:40:55;2.00;;;1.90;;
17614;SDS011;8926;49.720;6.576;2022-12-07T15:43:21;1.80;;;1.70;;
17614;SDS011;8926;49.720;6.576;2022-12-07T15:46:04;1.60;;;1.50;;
17614;SDS011;8926;49.720;6.576;2022-12-07T15:48:30;2.30;;;2.20;;
17614;SDS011;8926;49.720;6.576;2022-12-07T15:51:05;2.50;;;2.30;;
17614;SDS011;8926;49.720;6.576;2022-12-07T15:53:33;2.90;;;2.70;;
17614;SDS011;8926;49.720;6.576;2022-12-07T15:55:59;4.57;;;4.17;;
17614;SDS011;8926;49.720;6.576;2022-12-07T15:58:24;4.53;;;4.13;;
17614;SDS011;8926;49.720;6.576;2022-12-07T16:00:50;5.70;;;5.20;;
17614;SDS011;8926;49.720;6.576;2022-12-07T16:03:15;4.53;;;4.13;;
17614;SDS011;8926;49.720;6.576;2022-12-07T16:05:40;3.93;;;3.63;;
17614;SDS011;8926;49.720;6.576;2022-12-07T16:08:06;3.93;;;3.63;;
17614;SDS011;8926;49.720;6.576;2022-12-07T16:10:31;4.00;;;3.70;;
17614;SDS011;8926;49.720;6.576;2022-12-07T16:12:57;4.20;;;3.90;;
17614;SDS011;8926;49.720;6.576;2022-12-07T16:15:23;3.37;;;3.07;;
17614;SDS011;8926;49.720;6.576;2022-12-07T16:17:49;2.87;;;2.67;;
17614;SDS011;8926;49.720;6.576;2022-12-07T16:20:15;3.30;;;3.00;;
17614;SDS011;8926;49.720;6.576;2022-12-07T16:22:40;3.37;;;3.07;;
17614;SDS011;8926;49.720;6.576;2022-12-07T16:25:05;7.40;;;6.60;;
17614;SDS011;8926;49.720;6.576;2022-12-07T16:27:31;6.30;;;5.70;;
17614;SDS011;8926;49.720;6.576;2022-12-07T16:29:56;5.97;;;5.37;;
17614;SDS011;8926;49.720;6.576;2022-12-07T16:32:21;5.07;;;4.57;;
17614;SDS011;8926;49.720;6.576;2022-12-07T16:34:47;4.80;;;4.40;;
17614;SDS011;8926;49.720;6.576;2022-12-07T16:37:13;4.87;;;4.40;;
17614;SDS011;8926;49.720;6.576;2022-12-07T16:39:38;4.17;;;3.87;;
17614;SDS011;8926;49.720;6.576;2022-12-07T16:42:03;4.50;;;4.10;;
17614;SDS011;8926;49.720;6.576;2022-12-07T16:44:28;4.80;;;4.40;;
17614;SDS011;8926;49.720;6.576;2022-12-07T16:46:55;4.57;;;4.17;;